Pagrindinis puslapis
METAR-TAF:

METAR-TAF

Oro uostai :

Ndžamena, Čadas

platuma: 12-08N, ilguma: 015-02E, Aukštis: 295 m

Dabartinis oras

Ataskaita buvo paskelbta 56 minutes, ne 05:00 UTC
Vėjas 1 kt nuo kintamojo kryptimis
Temperatūra 17°C
Drėgmė 45%
Slėgis 1012 hPa
Matomumas: 8000 m

METAR: FTTJ 050500Z VRB01KT 8000 NSC 17/05 Q1012 NOSIG

Laikas: 06:56 (05:56 UTC)

Prognozė

Ataskaita buvo paskelbta 56 minutes, ne 05:00 UTC
Prognozė galioja nuo 05 metu 06 UTC su 06 metu 12 UTC
Vėjas 8 kt iš Šiaurės Rytų
Matomumas: 6000 m

TAF: FTTJ 050500Z 0506/0612 04008KT 6000 NSC

Orai ataskaitas ir orų prognozės (METAR, TAF).

turimą stotys yra geltonos ir raudonos taškus žemėlapyje.

Perkelti pele per norėdami pamatyti stoties vardą.

Tada spustelėkite, norėdami matyti oro stebėjimo ir prognozės.

Norėdami pakeisti žemėlapį: spustelėkite ant žalios mygtukų su juodo kryžiaus žemyn,; žalią mygtuką su brūkšneliu, jei norite nutolinti; arba žalių rodyklių gretimoms žemėlapius.


METAR-TAF: